createdAt,value
2016-05-13T00:00:15.074Z,0
2016-05-13T00:01:15.077Z,0
2016-05-13T00:02:14.922Z,0
2016-05-13T00:03:14.941Z,0
2016-05-13T00:04:15.100Z,0
2016-05-13T00:05:15.306Z,0
2016-05-13T00:06:15.261Z,0
2016-05-13T00:07:15.124Z,0
2016-05-13T00:08:15.158Z,0
2016-05-13T00:09:15.176Z,0
2016-05-13T00:10:14.960Z,0
2016-05-13T00:11:15.104Z,0
2016-05-13T00:12:14.966Z,0
2016-05-13T00:13:15.109Z,0
2016-05-13T00:14:14.955Z,0
2016-05-13T00:15:14.942Z,0
2016-05-13T00:16:15.148Z,0
2016-05-13T00:17:15.119Z,0
2016-05-13T00:18:15.137Z,0
2016-05-13T00:19:15.126Z,0
2016-05-13T00:20:15.128Z,0
2016-05-13T00:21:15.115Z,0
2016-05-13T00:22:15.133Z,0
2016-05-13T00:23:15.167Z,0
2016-05-13T00:24:14.826Z,0
2016-05-13T00:25:15.000Z,0
2016-05-13T00:26:15.144Z,0
2016-05-13T00:27:15.131Z,0
2016-05-13T00:28:15.133Z,0
2016-05-13T00:29:14.995Z,0
2016-05-13T00:30:15.155Z,0
2016-05-13T00:31:15.188Z,0
2016-05-13T00:32:14.973Z,0
2016-05-13T00:33:14.975Z,0
2016-05-13T00:34:15.134Z,0
2016-05-13T00:35:15.136Z,0
2016-05-13T00:36:15.171Z,0
2016-05-13T00:37:15.157Z,0
2016-05-13T00:38:15.004Z,0
2016-05-13T00:39:14.975Z,0
2016-05-13T00:40:15.150Z,0
2016-05-13T00:41:15.185Z,0
2016-05-13T00:42:15.187Z,0
2016-05-13T00:43:15.174Z,0
2016-05-13T00:44:15.176Z,0
2016-05-13T00:45:15.179Z,0
2016-05-13T00:46:15.166Z,0
2016-05-13T00:47:15.029Z,0
2016-05-13T00:48:15.187Z,0
2016-05-13T00:49:15.190Z,0
2016-05-13T00:50:15.161Z,0
2016-05-13T00:51:15.179Z,0
2016-05-13T00:52:15.182Z,0
2016-05-13T00:53:15.169Z,0
2016-05-13T00:54:15.188Z,0
2016-05-13T00:55:14.893Z,0
2016-05-13T00:56:14.865Z,0
2016-05-13T00:57:15.181Z,0
2016-05-13T00:58:15.183Z,0
2016-05-13T00:59:15.217Z,0
2016-05-13T01:00:15.188Z,0
2016-05-13T01:01:15.217Z,0
2016-05-13T01:02:15.107Z,0
2016-05-13T01:03:15.154Z,0
2016-05-13T01:04:15.199Z,0
2016-05-13T01:05:15.246Z,0
2016-05-13T01:06:15.268Z,0
2016-05-13T01:07:15.444Z,0
2016-05-13T01:08:15.478Z,0
2016-05-13T01:09:15.496Z,0
2016-05-13T01:10:15.499Z,0
2016-05-13T01:11:15.358Z,0
2016-05-13T01:12:15.507Z,0
2016-05-13T01:13:15.515Z,0
2016-05-13T01:14:15.524Z,0
2016-05-13T01:15:15.532Z,0
2016-05-13T01:16:15.570Z,0
2016-05-13T01:17:15.543Z,0
2016-05-13T01:18:15.548Z,0
2016-05-13T01:19:15.411Z,0
2016-05-13T01:20:15.557Z,0
2016-05-13T01:21:15.561Z,0
2016-05-13T01:22:15.549Z,0
2016-05-13T01:23:15.552Z,0
2016-05-13T01:24:19.135Z,0
2016-05-13T01:25:15.576Z,0
2016-05-13T01:26:15.250Z,0
2016-05-13T01:27:15.566Z,0
2016-05-13T01:28:15.569Z,0
2016-05-13T01:29:15.571Z,0
2016-05-13T01:30:15.607Z,0
2016-05-13T01:31:15.438Z,0
2016-05-13T01:32:15.705Z,0
2016-05-13T01:33:15.474Z,0
2016-05-13T01:34:15.601Z,0
2016-05-13T01:35:15.463Z,0
2016-05-13T01:36:15.592Z,0
2016-05-13T01:37:15.610Z,0
2016-05-13T01:38:15.597Z,0
2016-05-13T01:39:15.599Z,0
2016-05-13T01:40:15.287Z,0
2016-05-13T01:41:15.446Z,0
2016-05-13T01:42:15.592Z,0
2016-05-13T01:43:15.610Z,0
2016-05-13T01:44:15.470Z,0
2016-05-13T01:45:15.615Z,0
2016-05-13T01:46:15.603Z,0
2016-05-13T01:47:15.606Z,0
2016-05-13T01:48:15.606Z,0
2016-05-13T01:49:15.624Z,0
2016-05-13T01:50:15.643Z,0
2016-05-13T01:51:15.473Z,0
2016-05-13T01:52:15.476Z,0
2016-05-13T01:53:15.619Z,0
2016-05-13T01:54:15.622Z,0
2016-05-13T01:55:15.608Z,0
2016-05-13T01:56:15.486Z,0
2016-05-13T01:57:15.489Z,0
2016-05-13T01:58:15.492Z,0
2016-05-13T01:59:15.464Z,0
2016-05-13T02:00:15.513Z,0
2016-05-13T02:01:15.610Z,0
2016-05-13T02:02:15.971Z,0
2016-05-13T02:03:15.505Z,0
2016-05-13T02:04:15.633Z,0
2016-05-13T02:05:15.636Z,0
2016-05-13T02:06:15.341Z,0
2016-05-13T02:07:15.641Z,0
2016-05-13T02:08:15.487Z,0
2016-05-13T02:09:15.335Z,0
2016-05-13T02:10:15.665Z,0
2016-05-13T02:11:15.512Z,0
2016-05-13T02:12:15.655Z,0
2016-05-13T02:13:15.642Z,0
2016-05-13T02:14:15.644Z,0
2016-05-13T02:15:15.647Z,0
2016-05-13T02:16:15.666Z,0
2016-05-13T02:17:15.653Z,0
2016-05-13T02:18:15.734Z,0
2016-05-13T02:19:15.501Z,0
2016-05-13T02:20:15.660Z,0
2016-05-13T02:21:15.678Z,0
2016-05-13T02:22:15.681Z,0
2016-05-13T02:23:15.669Z,0
2016-05-13T02:24:15.750Z,0
2016-05-13T02:25:15.674Z,0
2016-05-13T02:26:15.661Z,0
2016-05-13T02:27:15.680Z,0
2016-05-13T02:28:15.666Z,0
2016-05-13T02:29:15.544Z,0
2016-05-13T02:30:15.516Z,0
2016-05-13T02:31:15.534Z,0
2016-05-13T02:32:15.521Z,0
2016-05-13T02:33:15.696Z,0
2016-05-13T02:34:15.698Z,0
2016-05-13T02:35:15.685Z,0
2016-05-13T02:36:15.703Z,0
2016-05-13T02:37:15.549Z,0
2016-05-13T02:38:15.538Z,0
2016-05-13T02:39:15.680Z,0
2016-05-13T02:40:15.683Z,0
2016-05-13T02:41:15.701Z,0
2016-05-13T02:42:15.704Z,0
2016-05-13T02:43:15.707Z,0
2016-05-13T02:44:15.709Z,0
2016-05-13T02:45:15.728Z,0
2016-05-13T02:46:15.699Z,0
2016-05-13T02:47:15.545Z,0
2016-05-13T02:48:15.407Z,0
2016-05-13T02:49:15.379Z,0
2016-05-13T02:50:15.726Z,0
2016-05-13T02:51:15.713Z,0
2016-05-13T02:52:15.700Z,0
2016-05-13T02:53:15.577Z,0
2016-05-13T02:54:15.705Z,0
2016-05-13T02:55:15.708Z,0
2016-05-13T02:56:15.710Z,0
2016-05-13T02:57:15.729Z,0
2016-05-13T02:58:15.591Z,0
2016-05-13T02:59:15.594Z,0
2016-05-13T03:00:15.721Z,0
2016-05-13T03:01:15.567Z,0
2016-05-13T03:02:15.789Z,0
2016-05-13T03:03:15.729Z,0
2016-05-13T03:04:15.607Z,0
2016-05-13T03:05:15.578Z,0
2016-05-13T03:06:15.722Z,0
2016-05-13T03:07:15.583Z,0
2016-05-13T03:08:15.602Z,0
2016-05-13T03:09:15.589Z,0
2016-05-13T03:10:15.749Z,0
2016-05-13T03:11:15.735Z,0
2016-05-13T03:12:15.738Z,0
2016-05-13T03:13:15.740Z,0
2016-05-13T03:14:15.743Z,0
2016-05-13T03:15:15.605Z,0
2016-05-13T03:16:15.764Z,0
2016-05-13T03:17:15.595Z,0
2016-05-13T03:18:15.754Z,0
2016-05-13T03:19:15.756Z,0
2016-05-13T03:20:15.743Z,0
2016-05-13T03:21:15.745Z,0
2016-05-13T03:22:15.764Z,0
2016-05-13T03:23:15.627Z,4
2016-05-13T03:24:15.770Z,4
2016-05-13T03:25:15.757Z,4
2016-05-13T03:26:15.759Z,4
2016-05-13T03:27:15.762Z,4
2016-05-13T03:28:15.750Z,0
2016-05-13T03:29:15.783Z,0
2016-05-13T03:30:15.755Z,4
2016-05-13T03:31:15.758Z,4
2016-05-13T03:32:15.760Z,4
2016-05-13T03:33:15.638Z,4
2016-05-13T03:34:15.750Z,4
2016-05-13T03:35:15.800Z,4
2016-05-13T03:36:15.772Z,8
2016-05-13T03:37:15.618Z,8
2016-05-13T03:38:15.777Z,8
2016-05-13T03:39:15.779Z,12
2016-05-13T03:40:15.641Z,12
2016-05-13T03:41:15.799Z,12
2016-05-13T03:42:15.632Z,16
2016-05-13T03:43:15.774Z,20
2016-05-13T03:44:15.933Z,20
2016-05-13T03:45:15.796Z,20
2016-05-13T03:46:15.782Z,20
2016-05-13T03:47:15.660Z,24
2016-05-13T03:48:15.804Z,24
2016-05-13T03:49:15.790Z,24
2016-05-13T03:50:15.793Z,24
2016-05-13T03:51:15.781Z,28
2016-05-13T03:52:15.783Z,28
2016-05-13T03:53:15.817Z,28
2016-05-13T03:54:15.789Z,32
2016-05-13T03:55:15.807Z,32
2016-05-13T03:56:15.637Z,28
2016-05-13T03:57:15.656Z,32
2016-05-13T03:58:15.830Z,36
2016-05-13T03:59:15.802Z,36
2016-05-13T04:00:15.805Z,40
2016-05-13T04:01:15.807Z,40
2016-05-13T04:02:15.670Z,44
2016-05-13T04:03:15.813Z,48
2016-05-13T04:04:15.800Z,52
2016-05-13T04:05:15.802Z,56
2016-05-13T04:06:15.680Z,60
2016-05-13T04:07:15.807Z,68
2016-05-13T04:08:15.811Z,72
2016-05-13T04:09:15.829Z,80
2016-05-13T04:10:15.832Z,92
2016-05-13T04:11:15.818Z,108
2016-05-13T04:12:15.821Z,120
2016-05-13T04:13:15.668Z,128
2016-05-13T04:14:15.811Z,144
2016-05-13T04:15:15.516Z,152
2016-05-13T04:16:15.676Z,164
2016-05-13T04:17:15.818Z,168
2016-05-13T04:18:16.165Z,184
2016-05-13T04:19:15.840Z,220
2016-05-13T04:20:15.827Z,260
2016-05-13T04:21:15.846Z,304
2016-05-13T04:22:15.692Z,348
2016-05-13T04:23:15.851Z,368
2016-05-13T04:24:15.681Z,384
2016-05-13T04:25:15.856Z,404
2016-05-13T04:26:15.858Z,412
2016-05-13T04:27:15.690Z,404
2016-05-13T04:28:15.676Z,404
2016-05-13T04:29:15.851Z,416
2016-05-13T04:30:15.698Z,428
2016-05-13T04:31:15.841Z,444
2016-05-13T04:32:15.687Z,464
2016-05-13T04:33:16.018Z,492
2016-05-13T04:34:15.708Z,520
2016-05-13T04:35:15.383Z,556
2016-05-13T04:36:15.855Z,600
2016-05-13T04:37:15.857Z,612
2016-05-13T04:38:15.860Z,616
2016-05-13T04:39:15.863Z,652
2016-05-13T04:40:15.866Z,684
2016-05-13T04:41:15.852Z,684
2016-05-13T04:42:15.902Z,664
2016-05-13T04:43:15.873Z,656
2016-05-13T04:44:15.860Z,636
2016-05-13T04:45:15.565Z,620
2016-05-13T04:46:15.710Z,600
2016-05-13T04:47:15.713Z,572
2016-05-13T04:48:16.012Z,552
2016-05-13T04:49:15.857Z,520
2016-05-13T04:50:15.876Z,484
2016-05-13T04:51:16.066Z,468
2016-05-13T04:52:15.897Z,460
2016-05-13T04:53:15.869Z,456
2016-05-13T04:54:15.871Z,436
2016-05-13T04:55:15.873Z,408
2016-05-13T04:56:15.876Z,388
2016-05-13T04:57:15.864Z,376
2016-05-13T04:58:15.711Z,372
2016-05-13T04:59:15.885Z,376
2016-05-13T05:00:15.731Z,380
2016-05-13T05:01:15.875Z,384
2016-05-13T05:02:15.767Z,388
2016-05-13T05:03:15.864Z,392
2016-05-13T05:04:15.883Z,388
2016-05-13T05:05:15.901Z,380
2016-05-13T05:06:15.904Z,392
2016-05-13T05:07:15.891Z,404
2016-05-13T05:08:15.878Z,432
2016-05-13T05:09:15.911Z,452
2016-05-13T05:10:15.758Z,468
2016-05-13T05:11:15.901Z,472
2016-05-13T05:12:15.764Z,472
2016-05-13T05:13:15.735Z,484
2016-05-13T05:14:15.894Z,508
2016-05-13T05:15:15.897Z,512
2016-05-13T05:16:15.899Z,504
2016-05-13T05:17:15.933Z,496
2016-05-13T05:18:15.764Z,492
2016-05-13T05:19:15.892Z,488
2016-05-13T05:20:15.910Z,488
2016-05-13T05:21:15.929Z,472
2016-05-13T05:22:15.900Z,436
2016-05-13T05:23:15.918Z,408
2016-05-13T05:24:15.623Z,408
2016-05-13T05:25:15.924Z,408
2016-05-13T05:26:15.942Z,432
2016-05-13T05:27:15.914Z,460
2016-05-13T05:28:15.916Z,504
2016-05-13T05:29:15.903Z,540
2016-05-13T05:30:15.967Z,564
2016-05-13T05:31:15.924Z,560
2016-05-13T05:32:15.803Z,568
2016-05-13T05:33:15.773Z,580
2016-05-13T05:34:15.933Z,596
2016-05-13T05:35:15.794Z,584
2016-05-13T05:36:15.641Z,548
2016-05-13T05:37:15.925Z,508
2016-05-13T05:38:15.943Z,492
2016-05-13T05:39:15.789Z,492
2016-05-13T05:40:15.792Z,496
2016-05-13T05:41:15.936Z,524
2016-05-13T05:42:15.922Z,552
2016-05-13T05:43:15.941Z,604
2016-05-13T05:44:15.802Z,672
2016-05-13T05:45:15.930Z,728
2016-05-13T05:46:15.948Z,768
2016-05-13T05:47:15.967Z,780
2016-05-13T05:48:15.939Z,776
2016-05-13T05:49:15.941Z,756
2016-05-13T05:50:15.976Z,744
2016-05-13T05:51:15.946Z,736
2016-05-13T05:52:15.793Z,716
2016-05-13T05:53:15.952Z,668
2016-05-13T05:54:15.798Z,616
2016-05-13T05:55:15.832Z,580
2016-05-13T05:56:15.959Z,552
2016-05-13T05:57:15.979Z,528
2016-05-13T05:58:15.965Z,488
2016-05-13T05:59:15.828Z,468
2016-05-13T06:00:15.987Z,468
2016-05-13T06:01:15.833Z,472
2016-05-13T06:02:15.961Z,480
2016-05-13T06:03:15.963Z,484
2016-05-13T06:04:15.794Z,492
2016-05-13T06:05:15.844Z,496
2016-05-13T06:06:15.831Z,504
2016-05-13T06:07:15.989Z,516
2016-05-13T06:08:15.977Z,520
2016-05-13T06:09:15.839Z,524
2016-05-13T06:10:15.998Z,532
2016-05-13T06:11:15.985Z,552
2016-05-13T06:12:16.002Z,576
2016-05-13T06:13:15.662Z,592
2016-05-13T06:14:15.680Z,616
2016-05-13T06:15:15.980Z,628
2016-05-13T06:16:15.998Z,640
2016-05-13T06:17:15.969Z,656
2016-05-13T06:18:16.051Z,672
2016-05-13T06:19:15.679Z,712
2016-05-13T06:20:15.994Z,756
2016-05-13T06:21:15.980Z,800
2016-05-13T06:22:15.999Z,852
2016-05-13T06:23:16.002Z,912
2016-05-13T06:24:16.004Z,968
2016-05-13T06:25:15.866Z,1004
2016-05-13T06:26:15.868Z,1040
2016-05-13T06:27:16.012Z,1068
2016-05-13T06:28:15.999Z,1088
2016-05-13T06:29:15.862Z,1144
2016-05-13T06:30:16.004Z,1192
2016-05-13T06:31:16.007Z,1224
2016-05-13T06:32:15.853Z,1260
2016-05-13T06:33:15.857Z,1292
2016-05-13T06:34:16.000Z,1292
2016-05-13T06:35:15.689Z,1316
2016-05-13T06:36:16.020Z,1340
2016-05-13T06:37:15.883Z,1404
2016-05-13T06:38:16.025Z,1544
2016-05-13T06:39:15.873Z,1708
2016-05-13T06:40:15.875Z,1856
2016-05-13T06:41:16.049Z,1996
2016-05-13T06:42:15.880Z,2108
2016-05-13T06:43:16.040Z,2172
2016-05-13T06:44:15.870Z,2196
2016-05-13T06:45:16.029Z,2172
2016-05-13T06:46:15.876Z,2164
2016-05-13T06:47:16.035Z,2204
2016-05-13T06:48:15.882Z,2260
2016-05-13T06:49:16.055Z,2288
2016-05-13T06:50:15.871Z,2376
2016-05-13T06:51:16.060Z,2524
2016-05-13T06:52:16.032Z,2636
2016-05-13T06:53:15.910Z,2744
2016-05-13T06:54:15.881Z,2820
2016-05-13T06:55:16.040Z,2772
2016-05-13T06:56:15.887Z,2776
2016-05-13T06:57:15.906Z,2960
2016-05-13T06:58:15.893Z,3192
2016-05-13T06:59:15.754Z,3480
2016-05-13T07:00:16.069Z,3828
2016-05-13T07:01:15.901Z,4104
2016-05-13T07:02:16.076Z,4128
2016-05-13T07:03:15.937Z,3936
2016-05-13T07:04:16.081Z,3688
2016-05-13T07:05:16.067Z,3472
2016-05-13T07:06:16.086Z,3364
2016-05-13T07:07:15.933Z,3328
2016-05-13T07:08:16.106Z,3300
2016-05-13T07:09:16.063Z,3340
2016-05-13T07:10:16.080Z,3476
2016-05-13T07:11:16.084Z,3764
2016-05-13T07:12:15.946Z,4148
2016-05-13T07:13:16.073Z,4420
2016-05-13T07:14:15.920Z,4256
2016-05-13T07:15:16.125Z,3808
2016-05-13T07:16:15.941Z,3412
2016-05-13T07:17:15.960Z,3104
2016-05-13T07:18:16.102Z,2848
2016-05-13T07:19:15.948Z,2628
2016-05-13T07:20:15.968Z,2544
2016-05-13T07:21:18.485Z,2496
2016-05-13T07:22:15.973Z,2356
2016-05-13T07:23:16.116Z,2204
2016-05-13T07:24:16.088Z,2120
2016-05-13T07:25:16.090Z,2084
2016-05-13T07:26:16.154Z,2068
2016-05-13T07:27:16.143Z,2132
2016-05-13T07:28:16.114Z,2240
2016-05-13T07:29:15.960Z,2380
2016-05-13T07:30:15.979Z,2560
2016-05-13T07:31:16.122Z,2792
2016-05-13T07:32:16.156Z,2964
2016-05-13T07:33:16.112Z,3032
2016-05-13T07:34:16.161Z,3056
2016-05-13T07:35:16.148Z,3084
2016-05-13T07:36:16.150Z,3048
2016-05-13T07:37:16.138Z,2912
2016-05-13T07:38:15.984Z,2640
2016-05-13T07:39:16.159Z,2344
2016-05-13T07:40:16.146Z,2180
2016-05-13T07:41:16.149Z,2056
2016-05-13T07:42:15.995Z,1884
2016-05-13T07:43:16.170Z,1760
2016-05-13T07:44:16.001Z,1704
2016-05-13T07:45:16.175Z,1696
2016-05-13T07:46:16.177Z,1772
2016-05-13T07:47:16.165Z,1880
2016-05-13T07:48:16.730Z,2020
2016-05-13T07:49:16.186Z,2176
2016-05-13T07:50:16.033Z,2308
2016-05-13T07:51:16.191Z,2380
2016-05-13T07:52:16.179Z,2376
2016-05-13T07:53:16.041Z,2320
2016-05-13T07:54:16.168Z,2276
2016-05-13T07:55:16.202Z,2248
2016-05-13T07:56:16.032Z,2304
2016-05-13T07:57:16.035Z,2336
2016-05-13T07:58:16.101Z,2340
2016-05-13T07:59:16.182Z,2300
2016-05-13T08:00:16.231Z,2312
2016-05-13T08:01:16.031Z,2332
2016-05-13T08:02:16.612Z,2244
2016-05-13T08:03:16.051Z,2196
2016-05-13T08:04:16.226Z,2184
2016-05-13T08:05:16.213Z,2212
2016-05-13T08:06:16.326Z,2348
2016-05-13T08:07:16.187Z,2472
2016-05-13T08:08:16.050Z,2528
2016-05-13T08:09:16.209Z,2504
2016-05-13T08:10:16.274Z,2388
2016-05-13T08:11:16.245Z,2332
2016-05-13T08:12:16.060Z,2296
2016-05-13T08:13:16.235Z,2212
2016-05-13T08:14:16.253Z,2192
2016-05-13T08:15:16.053Z,2260
2016-05-13T08:16:16.228Z,2368
2016-05-13T08:17:16.089Z,2484
2016-05-13T08:18:16.264Z,2548
2016-05-13T08:19:16.080Z,2636
2016-05-13T08:20:16.238Z,2748
2016-05-13T08:21:16.100Z,2896
2016-05-13T08:22:16.274Z,3104
2016-05-13T08:23:16.278Z,3140
2016-05-13T08:24:16.233Z,3104
2016-05-13T08:25:16.251Z,2968
2016-05-13T08:26:16.130Z,2944
2016-05-13T08:27:16.179Z,3000
2016-05-13T08:28:16.276Z,3040
2016-05-13T08:29:16.246Z,3100
2016-05-13T08:30:16.265Z,3096
2016-05-13T08:31:16.252Z,3124
2016-05-13T08:32:16.129Z,3204
2016-05-13T08:33:16.523Z,3372
2016-05-13T08:34:15.979Z,3484
2016-05-13T08:35:16.262Z,3528
2016-05-13T08:36:16.297Z,3412
2016-05-13T08:37:16.268Z,3272
2016-05-13T08:38:16.271Z,3204
2016-05-13T08:39:16.290Z,3268
2016-05-13T08:40:16.276Z,3404
2016-05-13T08:41:16.295Z,3396
2016-05-13T08:42:16.297Z,3392
2016-05-13T08:43:16.300Z,3276
2016-05-13T08:44:15.990Z,3104
2016-05-13T08:45:16.321Z,2984
2016-05-13T08:46:16.324Z,2960
2016-05-13T08:47:16.311Z,2912
2016-05-13T08:48:16.455Z,2904
2016-05-13T08:49:16.316Z,2920
2016-05-13T08:50:16.303Z,2980
2016-05-13T08:51:16.321Z,3084
2016-05-13T08:52:16.308Z,3272
2016-05-13T08:53:15.999Z,3456
2016-05-13T08:54:16.017Z,3656
2016-05-13T08:55:16.332Z,3804
2016-05-13T08:56:16.319Z,3876
2016-05-13T08:57:16.322Z,3920
2016-05-13T08:58:16.340Z,3744
2016-05-13T08:59:16.343Z,3496
2016-05-13T09:00:16.190Z,3412
2016-05-13T09:01:16.333Z,3412
2016-05-13T09:02:16.351Z,3376
2016-05-13T09:03:16.682Z,3220
2016-05-13T09:04:16.168Z,3144
2016-05-13T09:05:16.359Z,3156
2016-05-13T09:06:16.346Z,3116
2016-05-13T09:07:16.348Z,3088
2016-05-13T09:08:16.367Z,3048
2016-05-13T09:09:16.198Z,3004
2016-05-13T09:10:16.342Z,2984
2016-05-13T09:11:16.359Z,3012
2016-05-13T09:12:16.378Z,3152
2016-05-13T09:13:16.037Z,3292
2016-05-13T09:14:16.243Z,3400
2016-05-13T09:15:16.402Z,3448
2016-05-13T09:16:16.436Z,3444
2016-05-13T09:17:16.469Z,3344
2016-05-13T09:18:17.675Z,3380
2016-05-13T09:19:16.381Z,3484
2016-05-13T09:20:16.369Z,3348
2016-05-13T09:21:16.402Z,3096
2016-05-13T09:22:16.374Z,2980
2016-05-13T09:23:16.252Z,2928
2016-05-13T09:24:16.222Z,2892
2016-05-13T09:25:16.225Z,2928
2016-05-13T09:26:16.400Z,2932
2016-05-13T09:27:16.403Z,2912
2016-05-13T09:28:16.405Z,2860
2016-05-13T09:29:16.393Z,2988
2016-05-13T09:30:16.410Z,3084
2016-05-13T09:31:16.429Z,2920
2016-05-13T09:32:16.682Z,2812
2016-05-13T09:33:16.247Z,2796
2016-05-13T09:34:16.265Z,2984
2016-05-13T09:35:16.252Z,3228
2016-05-13T09:36:16.443Z,3432
2016-05-13T09:37:16.257Z,3620
2016-05-13T09:38:16.432Z,3836
2016-05-13T09:39:17.684Z,3812
2016-05-13T09:40:16.454Z,3752
2016-05-13T09:41:16.503Z,3624
2016-05-13T09:42:16.553Z,3724
2016-05-13T09:43:16.445Z,3560
2016-05-13T09:44:16.433Z,3328
2016-05-13T09:45:16.420Z,3340
2016-05-13T09:46:16.281Z,3280
2016-05-13T09:47:16.441Z,3084
2016-05-13T09:48:18.209Z,3160
2016-05-13T09:49:16.336Z,3300
2016-05-13T09:50:16.449Z,3344
2016-05-13T09:51:16.436Z,3348
2016-05-13T09:52:16.438Z,3592
2016-05-13T09:53:16.457Z,4028
2016-05-13T09:54:16.460Z,4300
2016-05-13T09:55:16.290Z,4324
2016-05-13T09:56:16.449Z,4156
2016-05-13T09:57:16.452Z,4232
2016-05-13T09:58:16.454Z,4616
2016-05-13T09:59:16.458Z,4928
2016-05-13T10:00:16.460Z,4876
2016-05-13T10:01:16.479Z,4860
2016-05-13T10:02:16.465Z,5036
2016-05-13T10:03:16.671Z,4700
2016-05-13T10:04:16.393Z,4444
2016-05-13T10:05:16.207Z,4104
2016-05-13T10:06:16.335Z,3808
2016-05-13T10:07:16.479Z,3680
2016-05-13T10:08:16.484Z,3528
2016-05-13T10:09:16.577Z,3472
2016-05-13T10:10:16.591Z,3380
2016-05-13T10:11:16.637Z,3580
2016-05-13T10:12:16.666Z,3568
2016-05-13T10:13:16.544Z,3528
2016-05-13T10:14:16.578Z,3560
2016-05-13T10:15:16.752Z,3628
2016-05-13T10:16:16.613Z,3708
2016-05-13T10:17:16.647Z,3564
2016-05-13T10:18:16.832Z,3588
2016-05-13T10:19:16.840Z,3460
2016-05-13T10:20:16.661Z,3436
2016-05-13T10:21:16.856Z,3512
2016-05-13T10:22:16.661Z,3556
2016-05-13T10:23:16.824Z,3632
2016-05-13T10:24:16.828Z,3548
2016-05-13T10:25:16.865Z,3360
2016-05-13T10:26:16.698Z,3376
2016-05-13T10:27:16.875Z,3240
2016-05-13T10:28:16.878Z,3208
2016-05-13T10:29:16.882Z,3428
2016-05-13T10:30:16.728Z,3400
2016-05-13T10:31:16.731Z,3200
2016-05-13T10:32:16.892Z,3096
2016-05-13T10:33:17.536Z,2988
2016-05-13T10:34:16.882Z,2920
2016-05-13T10:35:16.604Z,2964
2016-05-13T10:36:16.764Z,2920
2016-05-13T10:37:16.876Z,2880
2016-05-13T10:38:16.878Z,2824
2016-05-13T10:39:16.897Z,2868
2016-05-13T10:40:16.728Z,2992
2016-05-13T10:41:16.903Z,3116
2016-05-13T10:42:16.749Z,3144
2016-05-13T10:43:16.908Z,3152
2016-05-13T10:44:16.911Z,3276
2016-05-13T10:45:16.897Z,3204
2016-05-13T10:46:16.900Z,3204
2016-05-13T10:47:16.902Z,3300
2016-05-13T10:48:17.530Z,3244
2016-05-13T10:49:16.971Z,3208
2016-05-13T10:50:16.990Z,3168
2016-05-13T10:51:16.758Z,3104
2016-05-13T10:52:16.917Z,3076
2016-05-13T10:53:16.748Z,3080
2016-05-13T10:54:16.921Z,3088
2016-05-13T10:55:16.924Z,3176
2016-05-13T10:56:16.771Z,3240
2016-05-13T10:57:16.617Z,3392
2016-05-13T10:58:16.933Z,3548
2016-05-13T10:59:16.779Z,3640
2016-05-13T11:00:17.719Z,3728
2016-05-13T11:01:16.940Z,3848
2016-05-13T11:02:17.022Z,3992
2016-05-13T11:03:17.228Z,4152
2016-05-13T11:04:16.933Z,4268
2016-05-13T11:05:16.951Z,4368
2016-05-13T11:06:16.939Z,4508
2016-05-13T11:07:16.956Z,4660
2016-05-13T11:08:16.944Z,4832
2016-05-13T11:09:16.962Z,5044
2016-05-13T11:10:16.794Z,5252
2016-05-13T11:11:16.967Z,5448
2016-05-13T11:12:16.970Z,5640
2016-05-13T11:13:16.958Z,5864
2016-05-13T11:14:16.991Z,6080
2016-05-13T11:15:16.822Z,6292
2016-05-13T11:16:16.965Z,6484
2016-05-13T11:17:16.827Z,6636
2016-05-13T11:18:17.643Z,6644
2016-05-13T11:19:16.989Z,6600
2016-05-13T11:20:17.007Z,6516
2016-05-13T11:21:16.838Z,6316
2016-05-13T11:22:17.029Z,5816
2016-05-13T11:23:17.000Z,5568
2016-05-13T11:24:16.674Z,5436
2016-05-13T11:25:17.021Z,5028
2016-05-13T11:26:17.008Z,4592
2016-05-13T11:27:18.526Z,4664
2016-05-13T11:28:17.013Z,5216
2016-05-13T11:29:17.032Z,5408
2016-05-13T11:30:16.847Z,5460
2016-05-13T11:31:17.021Z,5488
2016-05-13T11:32:16.853Z,5760
2016-05-13T11:33:17.120Z,6124
2016-05-13T11:34:16.951Z,6176
2016-05-13T11:35:16.704Z,6260
2016-05-13T11:36:16.863Z,6632
2016-05-13T11:37:17.053Z,7120
2016-05-13T11:38:17.056Z,7928
2016-05-13T11:39:16.887Z,8428
2016-05-13T11:40:17.030Z,8744
2016-05-13T11:41:17.017Z,9320
2016-05-13T11:42:17.035Z,10968
2016-05-13T11:43:17.038Z,10804
2016-05-13T11:44:16.885Z,9612
2016-05-13T11:45:16.887Z,9148
2016-05-13T11:46:17.030Z,9516
2016-05-13T11:47:17.049Z,10656
2016-05-13T11:48:16.755Z,11260
2016-05-13T11:49:17.055Z,10568
2016-05-13T11:50:16.573Z,9836
2016-05-13T11:51:17.091Z,10080
2016-05-13T11:52:17.077Z,10104
2016-05-13T11:53:16.924Z,11284
2016-05-13T11:54:16.927Z,12376
2016-05-13T11:55:17.071Z,12996
2016-05-13T11:56:16.776Z,13576
2016-05-13T11:57:16.951Z,13764
2016-05-13T11:58:17.110Z,14244
2016-05-13T11:59:17.096Z,14136
2016-05-13T12:00:17.131Z,13568
2016-05-13T12:01:17.117Z,13140
2016-05-13T12:02:17.543Z,13040
2016-05-13T12:03:16.811Z,12504
2016-05-13T12:04:17.110Z,11072
2016-05-13T12:05:17.113Z,10172
2016-05-13T12:06:17.178Z,9100
2016-05-13T12:07:17.165Z,7756
2016-05-13T12:08:16.996Z,7288
2016-05-13T12:09:16.983Z,7020
2016-05-13T12:10:17.158Z,6844
2016-05-13T12:11:17.176Z,6784
2016-05-13T12:12:17.178Z,6804
2016-05-13T12:13:17.197Z,6952
2016-05-13T12:14:17.199Z,6876
2016-05-13T12:15:17.014Z,6528
2016-05-13T12:16:17.174Z,6188
2016-05-13T12:17:17.036Z,5768
2016-05-13T12:18:17.272Z,5328
2016-05-13T12:19:17.025Z,5060
2016-05-13T12:20:17.028Z,4872
2016-05-13T12:21:17.188Z,4652
2016-05-13T12:22:17.065Z,4544
2016-05-13T12:23:17.068Z,4580
2016-05-13T12:24:17.210Z,4788
2016-05-13T12:25:17.058Z,4976
2016-05-13T12:26:17.248Z,4960
2016-05-13T12:27:17.235Z,4972
2016-05-13T12:28:17.238Z,5236
2016-05-13T12:29:17.209Z,5920
2016-05-13T12:30:17.274Z,6856
2016-05-13T12:31:17.246Z,7660
2016-05-13T12:32:17.279Z,8092
2016-05-13T12:33:17.110Z,8372
2016-05-13T12:34:17.254Z,8472
2016-05-13T12:35:17.084Z,8436
2016-05-13T12:36:17.118Z,8280
2016-05-13T12:37:17.090Z,7880
2016-05-13T12:38:17.264Z,7288
2016-05-13T12:39:17.284Z,6888
2016-05-13T12:40:17.270Z,6564
2016-05-13T12:41:16.975Z,6404
2016-05-13T12:42:16.948Z,6544
2016-05-13T12:43:17.137Z,6884
2016-05-13T12:44:17.281Z,7456
2016-05-13T12:45:17.143Z,7780
2016-05-13T12:46:17.302Z,8068
2016-05-13T12:47:18.023Z,8328
2016-05-13T12:48:17.338Z,7972
2016-05-13T12:49:17.341Z,7500
2016-05-13T12:50:17.297Z,7296
2016-05-13T12:51:17.346Z,6876
2016-05-13T12:52:17.318Z,6380
2016-05-13T12:53:17.352Z,5520
2016-05-13T12:54:17.166Z,4892
2016-05-13T12:55:17.341Z,4624
2016-05-13T12:56:17.359Z,4568
2016-05-13T12:57:17.159Z,4700
2016-05-13T12:58:17.334Z,4780
2016-05-13T12:59:17.368Z,4700
2016-05-13T13:00:17.354Z,4836
2016-05-13T13:01:17.342Z,5324
2016-05-13T13:02:17.376Z,5624
2016-05-13T13:03:17.207Z,5600
2016-05-13T13:04:17.209Z,5560
2016-05-13T13:05:17.368Z,5644
2016-05-13T13:06:17.402Z,5756
2016-05-13T13:07:17.202Z,5812
2016-05-13T13:08:17.361Z,5984
2016-05-13T13:09:17.364Z,6180
2016-05-13T13:10:17.382Z,6416
2016-05-13T13:11:17.228Z,6732
2016-05-13T13:12:17.387Z,7004
2016-05-13T13:13:17.405Z,7204
2016-05-13T13:14:17.392Z,7476
2016-05-13T13:15:17.395Z,7824
2016-05-13T13:16:17.086Z,8144
2016-05-13T13:17:17.416Z,8148
2016-05-13T13:18:17.497Z,8264
2016-05-13T13:19:17.421Z,8492
2016-05-13T13:20:17.439Z,8656
2016-05-13T13:21:17.428Z,8764
2016-05-13T13:22:17.289Z,8856
2016-05-13T13:23:17.291Z,8984
2016-05-13T13:24:17.435Z,9292
2016-05-13T13:25:17.468Z,9596
2016-05-13T13:26:17.456Z,9732
2016-05-13T13:27:17.444Z,9596
2016-05-13T13:28:17.461Z,9396
2016-05-13T13:29:17.448Z,9136
2016-05-13T13:30:17.467Z,8984
2016-05-13T13:31:17.454Z,8772
2016-05-13T13:32:17.487Z,8564
2016-05-13T13:33:17.335Z,8604
2016-05-13T13:34:17.321Z,8848
2016-05-13T13:35:17.480Z,9344
2016-05-13T13:36:17.498Z,9916
2016-05-13T13:37:17.485Z,10360
2016-05-13T13:38:17.317Z,11344
2016-05-13T13:39:17.507Z,11256
2016-05-13T13:40:17.337Z,11260
2016-05-13T13:41:17.528Z,11192
2016-05-13T13:42:17.531Z,11000
2016-05-13T13:43:17.517Z,10548
2016-05-13T13:44:17.364Z,10452
2016-05-13T13:45:17.539Z,10532